Nashville, TN (37244)

9:28 AM CDT on October 01, 2014 (GMT -0500)
3810 Whites Creek Pike | Change Station
CLOSE
Current Station
Personal Weather Station
Location: Nashville, TN
Elevation: 459 ft
Nearby Weather Stations

Elev 459 ft 36.25 °N, 86.82 °W | Updated 3 seconds ago

Mostly Cloudy
Mostly Cloudy
67.9 °F
Feels Like 67.9 °F
N
0.7
Wind Variable Wind from WNW
Gusts 0.9 mph

Today
High -- | Low -- °F
--% Chance of Precip.
Yesterday
High -- | Low -- °F
Precip. -- in
6:42 AM 6:30 PM
Waxing Crescent, 48% visible
Pressure 29.99 in
Visibility 10.0 miles
Clouds Few 5000 ft
Scattered Clouds 12000 ft
Scattered Clouds 20000 ft
Mostly Cloudy 25000 ft
Dew Point 61 °F
Humidity 79%
Rainfall 0.00 in
Snow Depth Not available.
UV 1 out of 12
Pollen 5.40 out of 12
Ozone Good
PM2.5 Moderate
Flu Activity Not available.
METAR KBNA 011353Z 00000KT 10SM FEW050 SCT120 SCT200 BKN250 20/14 A3000 RMK AO2 SLP153 T02000139

More Conditions Fewer Conditions

Pressure 29.99 in
Visibility 10.0 miles
Clouds Few 5000 ft
Scattered Clouds 12000 ft
Scattered Clouds 20000 ft
Mostly Cloudy 25000 ft
Dew Point 61 °F
Humidity 79%
Rainfall 0.00 in
Snow Depth Not available.
UV 1 out of 12
Pollen 5.40 out of 12
Ozone Good
PM2.5 Moderate
Flu Activity Not available.
METAR KBNA 011353Z 00000KT 10SM FEW050 SCT120 SCT200 BKN250 20/14 A3000 RMK AO2 SLP153 T02000139

More Conditions Fewer Conditions

10-Day Weather Forecast

Almanac

Astronomy

Oct. 01, 2014 Rise Set
Actual Time 6:42 AM CDT 6:30 PM CDT
Civil Twilight 6:16 AM CDT 6:56 PM CDT
Nautical Twilight 5:46 AM CDT 7:26 PM CDT
Astronomical Twilight 5:16 AM CDT 7:55 PM CDT
Moon 1:35 PM CDT No Moon Set
Length of Visible Light 12h 39m
Length of Day
11h 48m
Tomorrow will be 2m 16s shorter.
Waxing Crescent, 48% of the Moon is Illuminated
Today
Waxing Crescent
Oct 1
First Quarter
Oct 8
Full
Oct 15
Last Quarter
Oct 23
New

Today's Extremes

State Highs State Lows

Community

WunderPhotos

Upload Photos

1,757,956 photos uploaded!

Nearby

Air Quality

  Air Quality AQ Index Pollutant
Yesterday Moderate
PM2.5
Yesterday Moderate
OZONE
Current Moderate
PM2.5
Current Good
OZONE
Wednesday Moderate
PM2.5
Wednesday Good
OZONE
Thursday Moderate
PM2.5
Thursday Good
OZONE

Snow Depth

Station Depth Elevation
No new snow has been reported.

Earthquake Activity

City Distance Mag. Time & Date
No recent earthquake activity has been reported nearby.
Minimum magnitude displayed is 2.5.

Coastal Water Temperatures

Place Temperature
No Stations Reporting

Nearby Weather Stations